Green Lofoten — P3MG8 — position and weather

sailwx.info

Track history (hours):
 
Tides and Currents Weather Stations Pressure Air Temp Water Temp Dewpoint Dewpoint Depression Visibility Wind Speed Wind Dir Waves Ship Positions

Green Lofoten

Last reported at 2017-Oct-18 15:16 UTC. Time now 2017-Oct-18 16:50 UTC.
Position N 59°49' E 025°15'.

Length 98 m; draft 5.8 m.

Type: Ship. MMSI: 212857000.

Date/timePositionNaut miles runAvg speedWind from/ knotsBaromVisibWave heightAir tempDewpointWater temp
2017-Oct-18 15:16N 59°49' E 025°15'613.5
2017-Oct-18 14:49N 59°48' E 025°03'1113.7
2017-Oct-18 14:00N 59°46' E 024°42'713.5
2017-Oct-18 13:30N 59°44' E 024°29'713.3
2017-Oct-18 13:00N 59°43' E 024°16'713.3
2017-Oct-18 12:27N 59°40' E 024°02'613.2
2017-Oct-18 12:00N 59°38' E 023°51'713.5
2017-Oct-18 11:30N 59°36' E 023°38'613.0
2017-Oct-18 11:00N 59°34' E 023°26'812.8
2017-Oct-18 10:24N 59°31' E 023°12'28713.3
2017-Oct-17 12:47N 56°07' E 016°54'414.1
2017-Oct-17 12:30N 56°04' E 016°48'714.1
2017-Oct-17 12:00N 56°00' E 016°39'714.0
2017-Oct-17 11:30N 55°57' E 016°28'714.1
2017-Oct-17 11:00N 55°54' E 016°16'713.8
2017-Oct-17 10:30N 55°50' E 016°05'713.8
2017-Oct-17 10:00N 55°47' E 015°55'713.9
2017-Oct-17 09:30N 55°44' E 015°44'714.0
2017-Oct-17 09:01N 55°40' E 015°33'714.2
2017-Oct-17 08:30N 55°37' E 015°22'714.2
2017-Oct-17 08:01N 55°34' E 015°11'714.2
2017-Oct-17 07:31N 55°31' E 014°60'714.2
2017-Oct-17 07:01N 55°27' E 014°49'714.0
2017-Oct-17 06:31N 55°23' E 014°38'714.1
2017-Oct-17 06:00N 55°18' E 014°30'714.0
2017-Oct-17 05:30N 55°12' E 014°23'612.3
2017-Oct-17 05:01N 55°10' E 014°13'714.1
2017-Oct-17 04:30N 55°11' E 014°01'814.2
2017-Oct-17 03:57N 55°12' E 013°47'613.4
2017-Oct-17 03:30N 55°12' E 013°37'813.5
2017-Oct-17 02:57N 55°13' E 013°24'813.5
2017-Oct-17 02:22N 55°14' E 013°10'513.9
2017-Oct-17 02:01N 55°14' E 013°01'713.6
2017-Oct-17 01:28N 55°16' E 012°49'613.4
2017-Oct-17 01:00N 55°18' E 012°39'612.1
2017-Oct-17 00:30N 55°24' E 012°39'713.2
2017-Oct-17 00:01N 55°31' E 012°42'611.1
2017-Oct-16 23:30N 55°36' E 012°42'611.5
2017-Oct-16 23:01N 55°42' E 012°41'613.0
2017-Oct-16 22:31N 55°48' E 012°42'612.9
2017-Oct-16 22:01N 55°55' E 012°39'612.7
2017-Oct-16 21:30N 56°01' E 012°40'713.1
2017-Oct-16 21:01N 56°06' E 012°32'713.2
2017-Oct-16 20:30N 56°10' E 012°22'612.7
2017-Oct-16 20:00N 56°14' E 012°13'4313.0
2017-Oct-16 16:42N 56°54' E 011°46'313.8
2017-Oct-16 16:30N 56°56' E 011°44'713.8
2017-Oct-16 16:00N 57°03' E 011°40'714.1
2017-Oct-16 15:30N 57°10' E 011°35'713.8
2017-Oct-16 15:00N 57°16' E 011°31'714.5
2017-Oct-16 14:30N 57°23' E 011°27'1414.4
2017-Oct-16 13:30N 57°34' E 011°10'815.1
2017-Oct-16 13:00N 57°39' E 010°59'715.0
2017-Oct-16 12:30N 57°43' E 010°48'714.1
2017-Oct-16 12:00N 57°48' E 010°37'815.7
2017-Oct-16 11:30N 57°48' E 010°23'815.3
2017-Oct-16 11:00N 57°48' E 010°08'714.8
2017-Oct-16 10:30N 57°49' E 009°54'815.2
2017-Oct-16 09:58N 57°49' E 009°39'715.7
2017-Oct-16 09:30N 57°50' E 009°25'815.6
2017-Oct-16 09:00N 57°50' E 009°11'815.2
2017-Oct-16 08:29N 57°50' E 008°56'814.9
2017-Oct-16 07:56N 57°51' E 008°41'714.7
2017-Oct-16 07:28N 57°51' E 008°28'714.4
2017-Oct-16 07:00N 57°52' E 008°15'713.5
2017-Oct-16 06:30N 57°52' E 008°03'713.2
2017-Oct-16 06:00N 57°52' E 007°50'612.6
2017-Oct-16 05:30N 57°53' E 007°38'712.6
2017-Oct-16 04:59N 57°53' E 007°26'612.4
2017-Oct-16 04:30N 57°53' E 007°15'612.6
2017-Oct-16 04:00N 57°53' E 007°03'612.6
2017-Oct-16 03:30N 57°54' E 006°51'612.4
2017-Oct-16 03:00N 57°54' E 006°40'612.1
2017-Oct-16 02:30N 57°57' E 006°29'612.8
2017-Oct-16 02:00N 57°60' E 006°19'612.8
2017-Oct-16 01:30N 58°03' E 006°08'712.9
2017-Oct-16 00:59N 58°06' E 005°57'612.9
2017-Oct-16 00:30N 58°09' E 005°46'612.4
2017-Oct-16 00:00N 58°12' E 005°36'612.3
2017-Oct-15 23:30N 58°15' E 005°26'612.4
2017-Oct-15 23:00N 58°18' E 005°16'712.7
2017-Oct-15 22:26N 58°23' E 005°06'512.6
2017-Oct-15 22:00N 58°26' E 004°58'612.4
2017-Oct-15 21:30N 58°31' E 004°49'612.5
2017-Oct-15 21:00N 58°35' E 004°40'  
Track history (hours):
 
Tides and Currents Weather Stations Pressure Air Temp Water Temp Dewpoint Dewpoint Depression Visibility Wind Speed Wind Dir Waves Ship Positions

Green Lofoten

Last reported at 2017-Oct-18 15:16 UTC. Time now 2017-Oct-18 16:50 UTC.
Position N 59°49' E 025°15'.

Length 98 m; draft 5.8 m.

Type: Ship. MMSI: 212857000.

Date/timePositionNaut miles runAvg speedWind from/ knotsBaromVisibWave heightAir tempDewpointWater temp
2017-Oct-18 15:16N 59°49' E 025°15'613.5
2017-Oct-18 14:49N 59°48' E 025°03'1113.7
2017-Oct-18 14:00N 59°46' E 024°42'713.5
2017-Oct-18 13:30N 59°44' E 024°29'713.3
2017-Oct-18 13:00N 59°43' E 024°16'713.3
2017-Oct-18 12:27N 59°40' E 024°02'613.2
2017-Oct-18 12:00N 59°38' E 023°51'713.5
2017-Oct-18 11:30N 59°36' E 023°38'613.0
2017-Oct-18 11:00N 59°34' E 023°26'812.8
2017-Oct-18 10:24N 59°31' E 023°12'28713.3
2017-Oct-17 12:47N 56°07' E 016°54'414.1
2017-Oct-17 12:30N 56°04' E 016°48'714.1
2017-Oct-17 12:00N 56°00' E 016°39'714.0
2017-Oct-17 11:30N 55°57' E 016°28'714.1
2017-Oct-17 11:00N 55°54' E 016°16'713.8
2017-Oct-17 10:30N 55°50' E 016°05'713.8
2017-Oct-17 10:00N 55°47' E 015°55'713.9
2017-Oct-17 09:30N 55°44' E 015°44'714.0
2017-Oct-17 09:01N 55°40' E 015°33'714.2
2017-Oct-17 08:30N 55°37' E 015°22'714.2
2017-Oct-17 08:01N 55°34' E 015°11'714.2
2017-Oct-17 07:31N 55°31' E 014°60'714.2
2017-Oct-17 07:01N 55°27' E 014°49'714.0
2017-Oct-17 06:31N 55°23' E 014°38'714.1
2017-Oct-17 06:00N 55°18' E 014°30'714.0
2017-Oct-17 05:30N 55°12' E 014°23'612.3
2017-Oct-17 05:01N 55°10' E 014°13'714.1
2017-Oct-17 04:30N 55°11' E 014°01'814.2
2017-Oct-17 03:57N 55°12' E 013°47'613.4
2017-Oct-17 03:30N 55°12' E 013°37'813.5
2017-Oct-17 02:57N 55°13' E 013°24'813.5
2017-Oct-17 02:22N 55°14' E 013°10'513.9
2017-Oct-17 02:01N 55°14' E 013°01'713.6
2017-Oct-17 01:28N 55°16' E 012°49'613.4
2017-Oct-17 01:00N 55°18' E 012°39'612.1
2017-Oct-17 00:30N 55°24' E 012°39'713.2
2017-Oct-17 00:01N 55°31' E 012°42'611.1
2017-Oct-16 23:30N 55°36' E 012°42'611.5
2017-Oct-16 23:01N 55°42' E 012°41'613.0
2017-Oct-16 22:31N 55°48' E 012°42'612.9
2017-Oct-16 22:01N 55°55' E 012°39'612.7
2017-Oct-16 21:30N 56°01' E 012°40'713.1
2017-Oct-16 21:01N 56°06' E 012°32'713.2
2017-Oct-16 20:30N 56°10' E 012°22'612.7
2017-Oct-16 20:00N 56°14' E 012°13'4313.0
2017-Oct-16 16:42N 56°54' E 011°46'313.8
2017-Oct-16 16:30N 56°56' E 011°44'713.8
2017-Oct-16 16:00N 57°03' E 011°40'714.1
2017-Oct-16 15:30N 57°10' E 011°35'713.8
2017-Oct-16 15:00N 57°16' E 011°31'714.5
2017-Oct-16 14:30N 57°23' E 011°27'1414.4
2017-Oct-16 13:30N 57°34' E 011°10'815.1
2017-Oct-16 13:00N 57°39' E 010°59'715.0
2017-Oct-16 12:30N 57°43' E 010°48'714.1
2017-Oct-16 12:00N 57°48' E 010°37'815.7
2017-Oct-16 11:30N 57°48' E 010°23'815.3
2017-Oct-16 11:00N 57°48' E 010°08'714.8
2017-Oct-16 10:30N 57°49' E 009°54'815.2
2017-Oct-16 09:58N 57°49' E 009°39'715.7
2017-Oct-16 09:30N 57°50' E 009°25'815.6
2017-Oct-16 09:00N 57°50' E 009°11'815.2
2017-Oct-16 08:29N 57°50' E 008°56'814.9
2017-Oct-16 07:56N 57°51' E 008°41'714.7
2017-Oct-16 07:28N 57°51' E 008°28'714.4
2017-Oct-16 07:00N 57°52' E 008°15'713.5
2017-Oct-16 06:30N 57°52' E 008°03'713.2
2017-Oct-16 06:00N 57°52' E 007°50'612.6
2017-Oct-16 05:30N 57°53' E 007°38'712.6
2017-Oct-16 04:59N 57°53' E 007°26'612.4
2017-Oct-16 04:30N 57°53' E 007°15'612.6
2017-Oct-16 04:00N 57°53' E 007°03'612.6
2017-Oct-16 03:30N 57°54' E 006°51'612.4
2017-Oct-16 03:00N 57°54' E 006°40'612.1
2017-Oct-16 02:30N 57°57' E 006°29'612.8
2017-Oct-16 02:00N 57°60' E 006°19'612.8
2017-Oct-16 01:30N 58°03' E 006°08'712.9
2017-Oct-16 00:59N 58°06' E 005°57'612.9
2017-Oct-16 00:30N 58°09' E 005°46'612.4
2017-Oct-16 00:00N 58°12' E 005°36'612.3
2017-Oct-15 23:30N 58°15' E 005°26'612.4
2017-Oct-15 23:00N 58°18' E 005°16'712.7
2017-Oct-15 22:26N 58°23' E 005°06'512.6
2017-Oct-15 22:00N 58°26' E 004°58'612.4
2017-Oct-15 21:30N 58°31' E 004°49'612.5
2017-Oct-15 21:00N 58°35' E 004°40'  

Dump ship's entire track history